Time;durP1;ratioP1;P1;durP2;ratioP2;P2;SDS_P1;SDS_P2;PMS_P1;PMS_P2;Temp;Humidity;BMP_temperature;BMP_pressure;BME280_temperature;BME280_humidity;BME280_pressure;Samples;Min_cycle;Max_cycle;Signal;HPM_P1;HPM_P2
2023/01/29 00:00:35;;;;;;;;;;;;;;;15.76;45.30;100965.47;4959271;28;1124;-57
2023/01/29 00:03:00;;;;;;;;;;;;;;;15.52;45.74;100967.75;4959318;28;1105;-52
2023/01/29 00:05:26;;;;;;;;;;;;;;;16.32;44.18;100977.91;4971191;28;1038;-55
2023/01/29 00:07:51;;;;;;;;;;;;;;;17.40;41.63;100976.31;4959560;28;1241;-46
2023/01/29 00:10:17;;;;;;;;;;;;;;;16.26;43.93;100974.31;4959062;28;1074;-46
2023/01/29 00:12:42;;;;;;;;;;;;;;;15.76;45.12;100973.69;4941988;29;1224;-55
2023/01/29 00:15:08;;;;;;;;;;;;;;;15.50;45.97;100978.16;4971865;28;1914;-55
2023/01/29 00:17:33;;;;;;;;;;;;;;;15.29;46.19;100983.47;4964771;28;851;-54
2023/01/29 00:19:59;;;;;;;;;;;;;;;16.83;42.83;100982.75;4958517;28;1193;-54
2023/01/29 00:22:24;;;;;;;;;;;;;;;17.23;41.57;100981.25;4958786;28;1097;-55
2023/01/29 00:24:50;;;;;;;;;;;;;;;16.16;44.25;100996.19;4958817;28;1138;-54
2023/01/29 00:27:15;;;;;;;;;;;;;;;15.71;45.25;100993.69;4958985;28;1105;-55
2023/01/29 00:29:41;;;;;;;;;;;;;;;15.48;45.83;100985.81;4941290;28;1086;-53
2023/01/29 00:32:06;;;;;;;;;;;;;;;17.04;42.54;100990.00;4958465;28;994;-54
2023/01/29 00:34:35;;;;;;;;;;;;;;;16.82;42.71;100989.38;4941121;28;1978;-52
2023/01/29 00:37:07;;;;;;;;;;;;;;;15.96;44.58;100986.75;4958633;28;1170;-51
2023/01/29 00:39:37;;;;;;;;;;;;;;;15.58;45.77;100985.88;4958970;28;1066;-53
2023/01/29 00:44:59;;;;;;;;;;;;;;;16.15;44.29;100987.13;4958977;28;1173;-53
2023/01/29 00:47:32;;;;;;;;;;;;;;;17.39;41.40;100982.06;4958366;28;1058;-56
2023/01/29 00:49:57;;;;;;;;;;;;;;;16.26;43.81;100977.06;4958625;28;1138;-53
2023/01/29 00:52:23;;;;;;;;;;;;;;;15.71;45.33;100977.22;4959016;28;1113;-58
2023/01/29 00:54:49;;;;;;;;;;;;;;;15.42;45.82;100986.84;4941313;29;1915;-57
2023/01/29 00:57:14;;;;;;;;;;;;;;;16.83;42.93;100983.59;4958438;28;1093;-50
2023/01/29 00:59:39;;;;;;;;;;;;;;;17.30;41.46;100987.28;4941447;29;1243;-50
2023/01/29 01:04:49;;;;;;;;;;;;;;;15.71;45.17;100982.72;4963367;28;1101;-53
2023/01/29 01:07:14;;;;;;;;;;;;;;;15.44;45.80;100977.28;4961024;28;1080;-54
2023/01/29 01:12:24;;;;;;;;;;;;;;;17.39;41.54;100973.81;4958034;28;1108;-52
2023/01/29 01:14:49;;;;;;;;;;;;;;;16.88;42.54;100983.63;4958068;28;1980;-56
2023/01/29 01:17:15;;;;;;;;;;;;;;;16.10;44.49;100980.81;4960729;28;1133;-56
2023/01/29 01:19:40;;;;;;;;;;;;;;;15.69;45.16;100982.13;4958022;28;1515;-56
2023/01/29 01:22:06;;;;;;;;;;;;;;;15.45;46.03;100986.34;4958019;28;1138;-56
2023/01/29 01:24:31;;;;;;;;;;;;;;;16.65;43.26;100984.91;4940817;29;1581;-57
2023/01/29 01:26:57;;;;;;;;;;;;;;;17.34;41.33;100982.91;4958148;28;1177;-57
2023/01/29 01:29:23;;;;;;;;;;;;;;;16.27;43.73;100975.97;4961232;28;1154;-56
2023/01/29 01:31:48;;;;;;;;;;;;;;;15.75;45.03;100991.22;4957826;28;1208;-56
2023/01/29 01:34:14;;;;;;;;;;;;;;;15.49;45.69;101007.47;4940626;29;1919;-56
2023/01/29 01:36:39;;;;;;;;;;;;;;;16.13;44.32;100996.72;4958150;28;1128;-57
2023/01/29 01:39:05;;;;;;;;;;;;;;;17.41;41.46;100999.13;4957779;28;1137;-54
2023/01/29 01:41:30;;;;;;;;;;;;;;;16.78;42.85;100997.31;4960516;28;1037;-57
2023/01/29 01:43:59;;;;;;;;;;;;;;;16.02;44.26;101002.16;4960755;28;1026;-57
2023/01/29 01:46:29;;;;;;;;;;;;;;;15.68;45.10;100996.94;4961851;28;1136;-57
2023/01/29 01:49:14;;;;;;;;;;;;;;;15.42;45.76;101000.53;4961598;28;1225;-56
2023/01/29 01:51:42;;;;;;;;;;;;;;;16.17;44.28;101008.81;4951472;28;1050;-55
2023/01/29 01:54:08;;;;;;;;;;;;;;;17.39;41.33;101017.81;4971709;28;1979;-56
2023/01/29 01:56:39;;;;;;;;;;;;;;;16.80;42.64;101011.59;4961559;28;1042;-56
2023/01/29 01:59:06;;;;;;;;;;;;;;;15.98;44.63;101005.69;4947045;28;1269;-56
2023/01/29 02:01:31;;;;;;;;;;;;;;;15.64;45.44;101017.75;4971371;28;1129;-57
2023/01/29 02:09:37;;;;;;;;;;;;;;;17.20;41.66;101031.25;4961454;28;927;-57
2023/01/29 02:12:06;;;;;;;;;;;;;;;16.11;44.30;101027.16;4944863;28;1115;-57
2023/01/29 02:14:33;;;;;;;;;;;;;;;15.68;45.03;101029.84;4953616;29;1923;-57
2023/01/29 02:16:59;;;;;;;;;;;;;;;15.60;45.33;101022.09;4977599;28;1206;-56
2023/01/29 02:19:27;;;;;;;;;;;;;;;17.18;41.98;101019.69;4985343;28;1266;-57
2023/01/29 02:21:56;;;;;;;;;;;;;;;16.62;43.03;101032.13;4961352;28;1134;-56
2023/01/29 02:24:24;;;;;;;;;;;;;;;15.88;44.55;101026.47;4960796;28;1018;-56
2023/01/29 02:26:50;;;;;;;;;;;;;;;15.57;45.53;101022.59;4961214;28;1138;-55
2023/01/29 02:29:55;;;;;;;;;;;;;;;15.42;45.73;101026.03;4961041;28;1162;-55
2023/01/29 02:32:27;;;;;;;;;;;;;;;17.23;41.70;101015.03;4914948;29;1219;-54
2023/01/29 02:37:42;;;;;;;;;;;;;;;15.86;44.71;101006.69;4942088;28;1217;-51
2023/01/29 02:40:11;;;;;;;;;;;;;;;15.54;45.33;100984.75;4943774;29;1106;-52
2023/01/29 02:42:46;;;;;;;;;;;;;;;15.84;44.91;100966.94;4955668;28;1327;-52
2023/01/29 02:45:12;;;;;;;;;;;;;;;17.32;41.48;100974.13;4960611;28;1204;-53
2023/01/29 02:47:46;;;;;;;;;;;;;;;16.46;43.09;100967.28;4943656;28;1051;-53
2023/01/29 02:50:14;;;;;;;;;;;;;;;15.90;44.29;100960.38;4943438;29;1145;-52
2023/01/29 02:52:59;;;;;;;;;;;;;;;15.56;45.22;100955.19;4927207;29;1927;-54
2023/01/29 02:55:31;;;;;;;;;;;;;;;16.28;43.51;100966.63;4959417;28;1910;-54
2023/01/29 02:57:59;;;;;;;;;;;;;;;17.47;41.03;100980.72;4915683;29;1349;-54
2023/01/29 03:00:25;;;;;;;;;;;;;;;16.40;43.24;100980.16;4975287;28;1189;-54
2023/01/29 03:03:09;;;;;;;;;;;;;;;15.90;44.19;100985.06;4943292;29;1078;-53
2023/01/29 03:05:53;;;;;;;;;;;;;;;15.52;44.98;100987.75;4960615;28;1011;-54
2023/01/29 03:08:22;;;;;;;;;;;;;;;15.80;44.58;100977.59;4975323;28;1179;-55
2023/01/29 03:10:57;;;;;;;;;;;;;;;17.24;41.35;100983.72;4927316;29;1186;-54
2023/01/29 03:13:29;;;;;;;;;;;;;;;17.10;41.53;100982.59;4942912;28;1129;-54
2023/01/29 03:16:00;;;;;;;;;;;;;;;16.18;43.35;100972.06;4974748;28;1902;-52
2023/01/29 03:18:44;;;;;;;;;;;;;;;15.73;44.39;100966.81;4936405;29;1298;-52
2023/01/29 03:32:16;;;;;;;;;;;;;;;15.57;44.63;100974.09;4961396;28;1157;-55
2023/01/29 03:34:45;;;;;;;;;;;;;;;15.39;45.25;100972.59;4942390;28;1906;-53
2023/01/29 03:37:14;;;;;;;;;;;;;;;16.72;42.17;100971.75;4926878;29;1244;-57
2023/01/29 03:39:39;;;;;;;;;;;;;;;17.49;40.26;100978.50;4974682;28;1373;-56
2023/01/29 03:42:14;;;;;;;;;;;;;;;16.30;43.00;100982.81;4948015;28;1157;-56
2023/01/29 03:44:39;;;;;;;;;;;;;;;15.76;44.03;100981.09;4976293;28;1125;-56
2023/01/29 03:47:12;;;;;;;;;;;;;;;15.47;45.00;100995.13;4942358;29;1332;-56
2023/01/29 03:49:58;;;;;;;;;;;;;;;16.37;42.72;100986.19;4926996;29;1143;-56
2023/01/29 03:52:36;;;;;;;;;;;;;;;17.56;39.97;100979.06;4942147;28;1126;-55
2023/01/29 03:55:10;;;;;;;;;;;;;;;16.32;42.92;100995.19;4962516;28;1973;-55
2023/01/29 03:57:38;;;;;;;;;;;;;;;15.86;43.72;100994.91;4942127;29;1233;-55
2023/01/29 04:00:06;;;;;;;;;;;;;;;15.53;44.69;100994.09;4926449;29;1072;-56
2023/01/29 04:03:11;;;;;;;;;;;;;;;16.52;42.56;100993.63;4942249;29;1167;-55
2023/01/29 04:05:42;;;;;;;;;;;;;;;17.39;40.20;100999.41;4941477;28;1220;-55
2023/01/29 04:08:22;;;;;;;;;;;;;;;16.24;42.96;101003.91;4964388;28;1460;-55
2023/01/29 04:10:48;;;;;;;;;;;;;;;15.81;43.75;101008.56;4925911;29;1249;-53
2023/01/29 04:13:14;;;;;;;;;;;;;;;15.48;44.84;101013.22;4942425;29;1026;-53
2023/01/29 04:15:43;;;;;;;;;;;;;;;15.25;45.19;101006.97;4941694;29;1965;-55
2023/01/29 04:18:08;;;;;;;;;;;;;;;16.47;42.62;101023.81;4945520;28;1170;-55
2023/01/29 04:21:06;;;;;;;;;;;;;;;17.34;40.34;101018.63;4931302;28;1141;-52
2023/01/29 04:23:32;;;;;;;;;;;;;;;16.21;42.80;101020.91;4973295;28;1104;-49
2023/01/29 04:26:06;;;;;;;;;;;;;;;15.77;44.10;101032.09;4973519;28;1172;-47
2023/01/29 04:28:47;;;;;;;;;;;;;;;15.76;44.03;101036.75;4925096;29;2532;-47
2023/01/29 04:31:13;;;;;;;;;;;;;;;17.38;40.65;101044.47;4950833;28;1315;-48
2023/01/29 04:33:57;;;;;;;;;;;;;;;17.04;40.97;101050.44;4958068;28;1108;-51
2023/01/29 04:36:34;;;;;;;;;;;;;;;16.12;43.17;101060.91;4957988;28;1522;-48
2023/01/29 04:39:20;;;;;;;;;;;;;;;15.73;44.26;101054.53;4958032;28;958;-47
2023/01/29 04:41:50;;;;;;;;;;;;;;;15.87;44.12;101065.94;4957933;28;998;-44
2023/01/29 04:44:18;;;;;;;;;;;;;;;17.39;40.46;101070.88;4941389;28;1039;-44
2023/01/29 04:46:46;;;;;;;;;;;;;;;16.64;41.96;101073.88;4940808;29;1170;-45
2023/01/29 04:49:15;;;;;;;;;;;;;;;15.99;43.66;101074.00;4957931;28;1034;-47
2023/01/29 04:51:48;;;;;;;;;;;;;;;15.65;44.41;101079.69;4958087;28;1078;-43
2023/01/29 04:54:26;;;;;;;;;;;;;;;15.35;45.00;101075.56;4943190;28;1980;-42
2023/01/29 04:56:52;;;;;;;;;;;;;;;16.63;42.35;101079.63;4958876;28;1065;-54
2023/01/29 04:59:22;;;;;;;;;;;;;;;17.55;39.99;101082.72;4957764;28;2587;-43
2023/01/29 05:01:47;;;;;;;;;;;;;;;16.35;42.77;101079.72;4957901;28;1018;-57
2023/01/29 05:04:13;;;;;;;;;;;;;;;15.85;43.78;101078.25;4940657;29;1026;-52
2023/01/29 05:06:39;;;;;;;;;;;;;;;15.53;44.88;101087.28;4945599;28;1078;-47
2023/01/29 05:09:04;;;;;;;;;;;;;;;15.34;44.88;101087.59;4979911;28;1129;-47
2023/01/29 05:11:31;;;;;;;;;;;;;;;16.98;41.42;101089.16;4957635;28;1133;-48
2023/01/29 05:13:56;;;;;;;;;;;;;;;16.86;41.46;101084.69;4957562;28;1910;-50
2023/01/29 05:16:26;;;;;;;;;;;;;;;15.98;43.56;101099.78;4957669;28;1136;-48
2023/01/29 05:18:52;;;;;;;;;;;;;;;15.59;44.49;101085.41;4963602;28;1125;-45
2023/01/29 05:21:17;;;;;;;;;;;;;;;16.01;43.49;101091.00;4972386;28;1076;-47
2023/01/29 05:23:51;;;;;;;;;;;;;;;17.39;40.44;101090.13;4957578;28;1065;-48
2023/01/29 05:29:04;;;;;;;;;;;;;;;15.76;44.13;101079.81;4957463;28;2266;-47
2023/01/29 05:31:30;;;;;;;;;;;;;;;15.51;44.69;101094.91;4967910;28;1189;-45
2023/01/29 05:33:55;;;;;;;;;;;;;;;15.29;45.25;101086.72;4957834;28;1906;-48
2023/01/29 05:36:20;;;;;;;;;;;;;;;15.45;44.68;101077.59;4957580;28;1033;-48
2023/01/29 05:38:46;;;;;;;;;;;;;;;17.00;41.21;101082.31;4957186;28;1116;-50
2023/01/29 05:41:11;;;;;;;;;;;;;;;17.14;40.90;101084.53;4957259;28;1014;-46
2023/01/29 05:43:37;;;;;;;;;;;;;;;16.13;43.02;101079.03;4961631;28;1074;-49
2023/01/29 05:46:02;;;;;;;;;;;;;;;15.69;44.09;101102.75;4957415;28;1113;-48
2023/01/29 05:48:28;;;;;;;;;;;;;;;15.40;44.90;101096.72;4957347;28;1046;-49
2023/01/29 05:50:53;;;;;;;;;;;;;;;15.45;44.92;101101.44;4957203;28;1050;-49
2023/01/29 05:53:19;;;;;;;;;;;;;;;17.04;41.27;101104.56;4957657;28;1066;-47
2023/01/29 05:55:45;;;;;;;;;;;;;;;16.87;41.46;101111.06;4965554;28;1989;-47
2023/01/29 05:58:10;;;;;;;;;;;;;;;16.00;43.29;101119.53;4957037;28;1924;-47
2023/01/29 06:00:36;;;;;;;;;;;;;;;15.57;44.39;101121.28;4957194;28;1077;-48
2023/01/29 06:03:01;;;;;;;;;;;;;;;15.35;45.13;101124.91;4957165;28;1090;-50
2023/01/29 06:05:27;;;;;;;;;;;;;;;16.16;43.16;101130.63;4957055;28;1050;-45
2023/01/29 06:07:52;;;;;;;;;;;;;;;17.37;40.46;101138.22;4959631;28;855;-45
2023/01/29 06:10:18;;;;;;;;;;;;;;;16.77;41.70;101144.78;4957438;28;1200;-47
2023/01/29 06:12:43;;;;;;;;;;;;;;;16.03;43.27;101142.88;4957449;28;1057;-50
2023/01/29 06:15:09;;;;;;;;;;;;;;;15.60;44.27;101152.81;4957194;28;1918;-48
2023/01/29 06:17:35;;;;;;;;;;;;;;;15.38;44.78;101140.81;4956711;28;1089;-48
2023/01/29 06:20:00;;;;;;;;;;;;;;;16.63;42.53;101154.56;4965283;28;1103;-51
2023/01/29 06:22:25;;;;;;;;;;;;;;;15.76;44.24;101146.44;4957037;28;1462;-48
2023/01/29 06:24:51;;;;;;;;;;;;;;;15.19;45.48;101164.13;4966117;28;1010;-48
2023/01/29 06:27:16;;;;;;;;;;;;;;;16.20;43.20;101150.97;4957328;28;1132;-52
2023/01/29 06:29:42;;;;;;;;;;;;;;;15.31;45.07;101162.09;4958966;28;2418;-49
2023/01/29 06:32:07;;;;;;;;;;;;;;;15.11;45.44;101172.81;4960502;28;872;-46
2023/01/29 06:34:33;;;;;;;;;;;;;;;16.11;43.66;101167.09;4960666;28;1994;-50
2023/01/29 06:36:58;;;;;;;;;;;;;;;15.17;45.66;101169.06;4960617;28;1180;-45
2023/01/29 06:39:23;;;;;;;;;;;;;;;14.93;45.53;101177.50;4960737;28;1197;-46
2023/01/29 06:41:49;;;;;;;;;;;;;;;16.14;43.69;101173.97;4969388;28;1113;-49
2023/01/29 06:44:14;;;;;;;;;;;;;;;15.26;45.36;101173.00;4975142;28;1088;-49
2023/01/29 06:46:40;;;;;;;;;;;;;;;17.09;41.73;101174.09;4960803;28;1042;-47
2023/01/29 06:49:05;;;;;;;;;;;;;;;16.70;42.55;101177.13;4960356;28;1173;-44
2023/01/29 06:51:31;;;;;;;;;;;;;;;15.67;44.86;101172.63;4960965;28;1066;-50
2023/01/29 06:53:56;;;;;;;;;;;;;;;15.76;45.00;101178.50;4959968;28;1985;-48
2023/01/29 06:56:22;;;;;;;;;;;;;;;15.73;44.82;101164.22;4964942;28;910;-49
2023/01/29 06:58:47;;;;;;;;;;;;;;;15.37;45.01;101171.22;4960512;28;1157;-50
2023/01/29 07:01:13;;;;;;;;;;;;;;;16.73;42.70;101168.38;4960269;28;1070;-54
2023/01/29 07:03:40;;;;;;;;;;;;;;;15.57;44.95;101174.19;4960410;28;1065;-55
2023/01/29 07:06:06;;;;;;;;;;;;;;;15.40;45.64;101170.69;4960525;28;1165;-51
2023/01/29 07:08:32;;;;;;;;;;;;;;;16.06;44.19;101183.47;4971227;28;1088;-49
2023/01/29 07:10:58;;;;;;;;;;;;;;;15.33;45.46;101190.09;4942807;28;1386;-54
2023/01/29 07:13:24;;;;;;;;;;;;;;;17.02;42.20;101172.69;4960219;28;1061;-56
2023/01/29 07:15:49;;;;;;;;;;;;;;;15.82;44.48;101169.28;4962835;28;1907;-52
2023/01/29 07:18:15;;;;;;;;;;;;;;;17.25;41.65;101169.50;4970162;28;1056;-48
2023/01/29 07:20:40;;;;;;;;;;;;;;;17.21;41.82;101175.81;4970228;28;1117;-51
2023/01/29 07:23:06;;;;;;;;;;;;;;;16.16;43.96;101158.06;4959727;28;1176;-51
2023/01/29 07:25:34;;;;;;;;;;;;;;;17.05;42.42;101172.16;4960109;28;1146;-53
2023/01/29 07:28:00;;;;;;;;;;;;;;;16.25;43.88;101170.22;4960481;28;1093;-52
2023/01/29 07:30:25;;;;;;;;;;;;;;;15.73;44.73;101164.22;4959987;28;1136;-47
2023/01/29 07:32:51;;;;;;;;;;;;;;;15.55;44.53;101189.25;4959680;28;1173;-49
2023/01/29 07:35:16;;;;;;;;;;;;;;;16.96;42.42;101184.72;4959873;28;1890;-49
2023/01/29 07:37:41;;;;;;;;;;;;;;;15.94;44.52;101186.41;4959926;28;1085;-48
2023/01/29 07:40:10;;;;;;;;;;;;;;;15.74;45.23;101203.44;4958876;28;1108;-50
2023/01/29 07:42:42;;;;;;;;;;;;;;;16.51;43.23;101195.13;4959578;28;1088;-46
2023/01/29 07:45:08;;;;;;;;;;;;;;;15.72;44.97;101197.38;4962831;28;895;-48
2023/01/29 07:47:33;;;;;;;;;;;;;;;15.47;44.93;101197.91;4959709;28;1081;-48
2023/01/29 07:49:59;;;;;;;;;;;;;;;16.40;43.42;101211.50;4959666;28;1165;-46
2023/01/29 07:52:24;;;;;;;;;;;;;;;15.55;44.95;101206.50;4959518;28;1085;-47
2023/01/29 07:54:50;;;;;;;;;;;;;;;17.41;41.65;101219.03;4959501;28;1981;-47
2023/01/29 07:57:15;;;;;;;;;;;;;;;16.43;43.31;101216.47;4960182;28;999;-51
2023/01/29 07:59:41;;;;;;;;;;;;;;;15.74;44.98;101212.50;4959424;28;1010;-51
2023/01/29 08:02:07;;;;;;;;;;;;;;;15.56;45.06;101204.63;4960379;28;1063;-48
2023/01/29 08:04:33;;;;;;;;;;;;;;;16.17;44.33;101209.09;4986346;28;1149;-53
2023/01/29 08:06:58;;;;;;;;;;;;;;;15.71;44.77;101204.78;4959337;28;1125;-49
2023/01/29 08:09:24;;;;;;;;;;;;;;;15.32;45.26;101224.06;4966892;28;927;-49
2023/01/29 08:11:49;;;;;;;;;;;;;;;15.86;44.83;101215.09;4959014;28;1138;-47
2023/01/29 08:14:15;;;;;;;;;;;;;;;15.73;44.70;101224.53;4959107;28;1969;-46
2023/01/29 08:16:40;;;;;;;;;;;;;;;15.25;45.69;101225.31;4959153;28;1050;-49
2023/01/29 08:19:05;;;;;;;;;;;;;;;16.74;42.90;101230.44;4959240;28;1204;-49
2023/01/29 08:21:31;;;;;;;;;;;;;;;15.66;45.31;101237.63;4968597;28;1126;-50
2023/01/29 08:23:56;;;;;;;;;;;;;;;17.46;41.40;101238.31;4958756;28;1200;-51
2023/01/29 08:26:22;;;;;;;;;;;;;;;16.72;42.71;101243.63;4959226;28;1106;-51
2023/01/29 08:28:47;;;;;;;;;;;;;;;16.05;44.33;101242.19;4958974;28;1150;-53
2023/01/29 08:31:16;;;;;;;;;;;;;;;15.60;44.73;101240.53;4958967;28;1197;-47
2023/01/29 08:33:42;;;;;;;;;;;;;;;16.36;43.70;101237.81;4958572;28;980;-52
2023/01/29 08:36:07;;;;;;;;;;;;;;;15.60;45.10;101241.41;4958377;28;1911;-51
2023/01/29 08:38:33;;;;;;;;;;;;;;;17.16;42.05;101242.56;4941323;28;1252;-51
2023/01/29 08:40:59;;;;;;;;;;;;;;;16.21;43.80;101234.94;4958672;28;1097;-51
2023/01/29 08:43:24;;;;;;;;;;;;;;;15.65;45.05;101244.19;4958689;28;1129;-46
2023/01/29 08:45:50;;;;;;;;;;;;;;;16.29;44.08;101253.69;4969017;28;1185;-51
2023/01/29 08:48:15;;;;;;;;;;;;;;;16.11;44.27;101235.66;4958555;28;1137;-50
2023/01/29 08:50:41;;;;;;;;;;;;;;;15.62;45.05;101239.22;4958666;28;1073;-47
2023/01/29 08:53:07;;;;;;;;;;;;;;;16.52;43.72;101235.22;4958146;28;1069;-48
2023/01/29 08:55:34;;;;;;;;;;;;;;;16.14;43.96;101234.31;4958471;28;1918;-47
2023/01/29 08:57:59;;;;;;;;;;;;;;;15.62;45.10;101233.72;4968644;28;891;-51
2023/01/29 09:00:24;;;;;;;;;;;;;;;15.33;45.08;101244.91;4958373;28;1230;-51
2023/01/29 09:02:50;;;;;;;;;;;;;;;16.19;43.85;101226.16;4958523;28;1176;-51
2023/01/29 09:05:15;;;;;;;;;;;;;;;16.16;44.13;101238.47;4957953;28;1180;-52
2023/01/29 09:07:41;;;;;;;;;;;;;;;17.78;40.50;101224.41;4958262;28;1241;-48
2023/01/29 09:10:06;;;;;;;;;;;;;;;16.62;43.21;101250.94;4958591;28;872;-52
2023/01/29 09:12:32;;;;;;;;;;;;;;;15.88;44.69;101243.13;4958591;28;1140;-48
2023/01/29 09:14:57;;;;;;;;;;;;;;;16.76;42.73;101236.50;4958119;28;1906;-52
2023/01/29 09:17:23;;;;;;;;;;;;;;;15.81;44.80;101249.88;4958581;28;1120;-56
2023/01/29 09:19:48;;;;;;;;;;;;;;;15.59;44.87;101239.72;4957522;28;1854;-51
2023/01/29 09:22:14;;;;;;;;;;;;;;;16.48;43.25;101245.06;4957970;28;1004;-56
2023/01/29 09:24:39;;;;;;;;;;;;;;;15.71;44.86;101240.44;4958134;28;1152;-49
2023/01/29 09:27:05;;;;;;;;;;;;;;;17.60;41.23;101244.16;4958274;28;1165;-51
2023/01/29 09:29:30;;;;;;;;;;;;;;;16.68;43.00;101231.50;4957846;28;1050;-53
2023/01/29 09:31:56;;;;;;;;;;;;;;;15.96;44.54;101243.72;4958097;28;1113;-55
2023/01/29 09:34:21;;;;;;;;;;;;;;;17.01;42.55;101242.47;4962585;28;1910;-56
2023/01/29 09:36:46;;;;;;;;;;;;;;;16.15;44.37;101246.97;4945526;28;1205;-52
2023/01/29 09:39:12;;;;;;;;;;;;;;;17.84;40.85;101246.41;4957945;28;1053;-55
2023/01/29 09:41:56;;;;;;;;;;;;;;;17.34;41.53;101229.47;4957431;28;1089;-52
2023/01/29 09:44:24;;;;;;;;;;;;;;;16.28;43.73;101235.53;4959240;28;1066;-50
2023/01/29 09:46:50;;;;;;;;;;;;;;;15.90;44.50;101229.97;4983021;28;1053;-56
2023/01/29 09:49:24;;;;;;;;;;;;;;;15.70;44.20;101230.53;4957682;28;1156;-55
2023/01/29 09:51:51;;;;;;;;;;;;;;;16.60;43.28;101221.81;4941093;29;1050;-51
2023/01/29 09:54:18;;;;;;;;;;;;;;;15.77;44.88;101229.50;4957472;28;1914;-50
2023/01/29 09:56:44;;;;;;;;;;;;;;;15.50;44.68;101233.03;4944143;28;1077;-53
2023/01/29 09:59:10;;;;;;;;;;;;;;;16.17;44.16;101222.81;4960625;28;1239;-52
2023/01/29 10:01:41;;;;;;;;;;;;;;;16.52;43.33;101229.72;4940414;29;1209;-50
2023/01/29 10:04:13;;;;;;;;;;;;;;;15.70;45.07;101229.72;4946348;28;1058;-53
2023/01/29 10:06:57;;;;;;;;;;;;;;;16.49;43.59;101227.50;4984401;28;1132;-51
2023/01/29 10:09:35;;;;;;;;;;;;;;;15.81;45.10;101234.25;4954411;28;1130;-55
2023/01/29 10:12:10;;;;;;;;;;;;;;;16.09;44.38;101221.41;4961179;29;1150;-51
2023/01/29 10:14:43;;;;;;;;;;;;;;;16.49;43.63;101220.09;4974086;28;1969;-50
2023/01/29 10:17:26;;;;;;;;;;;;;;;15.74;44.91;101217.16;4985328;28;1138;-54
2023/01/29 10:20:14;;;;;;;;;;;;;;;17.31;41.50;101214.31;4990642;28;1065;-50
2023/01/29 10:22:41;;;;;;;;;;;;;;;15.88;44.46;101206.66;4958090;28;917;-51
2023/01/29 10:25:09;;;;;;;;;;;;;;;17.01;42.53;101215.84;4980276;28;1081;-50
2023/01/29 10:27:37;;;;;;;;;;;;;;;16.41;43.75;101215.06;4967346;28;1165;-48
2023/01/29 10:30:05;;;;;;;;;;;;;;;15.69;44.81;101208.88;4980147;28;1025;-48
2023/01/29 10:32:30;;;;;;;;;;;;;;;15.46;44.85;101216.28;4994401;28;1112;-48
2023/01/29 10:34:56;;;;;;;;;;;;;;;15.43;44.53;101214.06;4994895;28;1910;-53
2023/01/29 10:37:23;;;;;;;;;;;;;;;16.62;43.36;101207.84;4995441;28;1096;-54
2023/01/29 10:39:49;;;;;;;;;;;;;;;15.70;44.98;101216.00;4971733;28;1204;-48
2023/01/29 10:42:26;;;;;;;;;;;;;;;15.63;45.24;101218.94;4973289;28;1074;-54
2023/01/29 10:44:56;;;;;;;;;;;;;;;16.14;43.99;101213.19;4970564;28;1197;-53
2023/01/29 10:47:24;;;;;;;;;;;;;;;15.58;45.09;101213.41;4983453;28;1219;-54
2023/01/29 10:49:59;;;;;;;;;;;;;;;17.10;42.08;101203.22;4971560;28;1086;-54
2023/01/29 10:52:24;;;;;;;;;;;;;;;15.86;44.74;101206.88;4975609;28;1080;-51
2023/01/29 10:55:08;;;;;;;;;;;;;;;15.46;45.51;101199.84;4980090;28;1975;-50
2023/01/29 10:57:37;;;;;;;;;;;;;;;16.23;43.70;101205.34;4975391;28;1128;-54
2023/01/29 11:00:12;;;;;;;;;;;;;;;16.49;43.48;101206.34;4971085;28;1058;-53
2023/01/29 11:02:49;;;;;;;;;;;;;;;18.00;40.14;101211.56;4975947;28;1161;-54
2023/01/29 11:05:37;;;;;;;;;;;;;;;16.34;43.82;101209.81;4973832;28;1180;-50
2023/01/29 11:08:12;;;;;;;;;;;;;;;17.26;41.74;101201.41;4995175;28;1088;-49
2023/01/29 11:10:40;;;;;;;;;;;;;;;16.47;43.42;101210.47;4979160;28;1025;-51
2023/01/29 11:13:07;;;;;;;;;;;;;;;15.93;44.19;101203.94;4983220;28;1153;-53
2023/01/29 11:15:33;;;;;;;;;;;;;;;15.60;44.55;101197.53;4987911;28;1934;-51
2023/01/29 11:17:59;;;;;;;;;;;;;;;16.21;43.98;101222.03;4960298;29;1086;-51
2023/01/29 11:20:25;;;;;;;;;;;;;;;16.02;44.16;101215.25;4976788;28;1027;-54
2023/01/29 11:22:54;;;;;;;;;;;;;;;16.76;43.08;101225.53;4979403;28;887;-53
2023/01/29 11:25:20;;;;;;;;;;;;;;;17.64;40.88;101212.25;4978937;28;1073;-51
2023/01/29 11:27:46;;;;;;;;;;;;;;;16.32;43.54;101214.72;4961871;28;1050;-54
2023/01/29 11:30:18;;;;;;;;;;;;;;;15.87;44.42;101204.97;4977956;28;1017;-49
2023/01/29 11:32:43;;;;;;;;;;;;;;;16.83;42.46;101200.56;4950748;28;1233;-54
2023/01/29 11:35:15;;;;;;;;;;;;;;;16.02;44.21;101199.66;4991983;28;1977;-54
2023/01/29 11:37:41;;;;;;;;;;;;;;;15.69;44.43;101211.59;4969177;28;1046;-50
2023/01/29 11:40:18;;;;;;;;;;;;;;;16.77;42.48;101213.44;4966493;28;1204;-52
2023/01/29 11:42:44;;;;;;;;;;;;;;;15.79;44.19;101208.16;4967610;28;1085;-53
2023/01/29 11:45:18;;;;;;;;;;;;;;;15.90;44.10;101207.19;4964383;28;1066;-50
2023/01/29 11:47:44;;;;;;;;;;;;;;;16.11;43.54;101200.00;4979077;28;1137;-55
2023/01/29 11:50:11;;;;;;;;;;;;;;;16.77;42.75;101207.97;4977421;28;1135;-47
2023/01/29 11:52:38;;;;;;;;;;;;;;;18.04;39.66;101201.66;4983937;28;1174;-52
2023/01/29 11:55:07;;;;;;;;;;;;;;;16.42;43.23;101197.53;4978915;28;1989;-54
2023/01/29 11:57:32;;;;;;;;;;;;;;;15.94;43.99;101196.56;4979864;28;1241;-46
2023/01/29 12:00:03;;;;;;;;;;;;;;;16.94;42.10;101195.97;4978770;28;1121;-47
2023/01/29 12:02:36;;;;;;;;;;;;;;;15.96;44.05;101192.44;4973861;28;1077;-49
2023/01/29 12:05:21;;;;;;;;;;;;;;;15.60;44.34;101192.06;4985976;28;1137;-44
2023/01/29 12:07:47;;;;;;;;;;;;;;;16.23;43.61;101197.09;4970385;28;1149;-47
2023/01/29 12:10:33;;;;;;;;;;;;;;;15.68;44.44;101191.59;4980614;28;1049;-50
2023/01/29 12:13:19;;;;;;;;;;;;;;;17.56;40.88;101199.84;4967808;28;1135;-49
2023/01/29 12:15:45;;;;;;;;;;;;;;;16.06;43.81;101198.03;4959422;28;1910;-48
2023/01/29 12:18:16;;;;;;;;;;;;;;;15.74;44.18;101187.00;4955462;28;1070;-47
2023/01/29 12:20:44;;;;;;;;;;;;;;;16.68;42.59;101195.81;4977956;28;1058;-44
2023/01/29 12:23:22;;;;;;;;;;;;;;;15.78;44.19;101203.75;4978850;28;871;-50
2023/01/29 12:25:55;;;;;;;;;;;;;;;17.62;40.59;101201.50;4967896;28;1011;-45
2023/01/29 12:28:30;;;;;;;;;;;;;;;16.64;42.53;101202.91;4992626;28;1084;-49
2023/01/29 12:31:14;;;;;;;;;;;;;;;15.92;43.94;101205.00;4967249;28;1201;-49
2023/01/29 12:33:39;;;;;;;;;;;;;;;15.56;44.13;101210.09;4954070;28;1055;-50
2023/01/29 12:36:05;;;;;;;;;;;;;;;16.41;42.89;101204.09;4964727;28;1968;-55
2023/01/29 12:38:30;;;;;;;;;;;;;;;15.69;44.39;101217.09;4978328;28;1038;-50
2023/01/29 12:40:57;;;;;;;;;;;;;;;16.18;43.80;101211.59;4977480;28;1069;-54
2023/01/29 12:43:26;;;;;;;;;;;;;;;16.35;43.13;101208.72;4966027;28;1014;-57
2023/01/29 12:45:52;;;;;;;;;;;;;;;15.63;44.53;101212.66;4975955;28;1049;-53
2023/01/29 12:48:23;;;;;;;;;;;;;;;17.61;40.69;101223.78;4981504;28;1231;-52
2023/01/29 12:50:48;;;;;;;;;;;;;;;16.16;43.40;101221.16;4990999;28;1080;-54
2023/01/29 12:53:17;;;;;;;;;;;;;;;15.63;44.33;101224.44;4941688;29;1090;-51
2023/01/29 12:55:43;;;;;;;;;;;;;;;16.56;42.84;101219.88;4972866;28;1914;-53
2023/01/29 12:58:15;;;;;;;;;;;;;;;15.72;44.42;101217.41;4992157;28;1061;-55
2023/01/29 13:00:44;;;;;;;;;;;;;;;17.42;41.09;101216.03;4992492;28;1103;-53
2023/01/29 13:03:24;;;;;;;;;;;;;;;16.17;43.36;101211.84;4992568;28;1477;-54
2023/01/29 13:05:59;;;;;;;;;;;;;;;15.77;44.18;101224.00;4992182;28;1127;-55
2023/01/29 13:08:31;;;;;;;;;;;;;;;16.07;43.64;101226.28;4992643;28;1057;-52
2023/01/29 13:10:57;;;;;;;;;;;;;;;15.81;44.07;101222.44;4976748;28;1003;-55
2023/01/29 13:13:25;;;;;;;;;;;;;;;15.52;44.46;101228.94;4992800;28;1084;-50
2023/01/29 13:15:50;;;;;;;;;;;;;;;16.79;42.36;101228.81;4961435;28;1918;-56
2023/01/29 13:18:28;;;;;;;;;;;;;;;15.68;44.43;101234.63;4984346;28;1069;-53
2023/01/29 13:20:53;;;;;;;;;;;;;;;16.22;43.64;101237.41;4941174;29;1135;-51
2023/01/29 13:23:20;;;;;;;;;;;;;;;15.87;44.07;101235.16;4972915;28;952;-56
2023/01/29 13:25:48;;;;;;;;;;;;;;;15.51;44.69;101237.44;4958008;29;1002;-49